Terminal Aerodrome Forecast
Issued by NWS Cleveland, OH

Home | Current Version | Previous Version | Text Only | Print | Product List | Glossary Off
Versions: 1 2 3 4 5 6 7 8 9 10 11 12 13 14 15 16 17 18

000
FTUS41 KCLE 210523
TAFTOL
TAF
KTOL 210523Z 2106/2206 10009KT 6SM -SHRA VCTS SCT025 OVC070CB
      TEMPO 2106/2110 VRB20G35KT 3SM -TSRA BKN025CB
     FM211000 15009KT 6SM -SHRA BR BKN025 OVC100
     FM211600 22014G22KT P6SM BKN025
     FM212000 23014G22KT P6SM VCTS SCT025 BKN050CB
     FM212200 25014KT P6SM BKN035=

USA.gov is the U.S. government's official web portal to all federal, state and local government web resources and services.